createdAt,value
2022-12-19T00:01:55.381Z,58.21
2022-12-19T00:04:41.232Z,58.31
2022-12-19T00:07:27.501Z,58.62
2022-12-19T00:10:13.362Z,58.72
2022-12-19T00:12:59.106Z,58.58
2022-12-19T00:15:44.923Z,58.96
2022-12-19T00:18:31.335Z,59.03
2022-12-19T00:21:19.604Z,58.20
2022-12-19T00:24:14.513Z,58.71
2022-12-19T00:27:06.637Z,58.99
2022-12-19T00:29:52.313Z,58.63
2022-12-19T00:32:38.316Z,58.41
2022-12-19T00:35:24.298Z,58.36
2022-12-19T00:38:10.433Z,58.52
2022-12-19T00:40:56.458Z,58.99
2022-12-19T00:43:44.116Z,59.32
2022-12-19T00:46:31.757Z,58.65
2022-12-19T00:49:17.704Z,59.27
2022-12-19T00:52:05.565Z,58.76
2022-12-19T00:54:51.430Z,58.97
2022-12-19T00:57:38.744Z,59.27
2022-12-19T01:00:24.434Z,58.58
2022-12-19T01:03:10.230Z,58.97
2022-12-19T01:05:56.857Z,58.92
2022-12-19T01:08:43.194Z,59.06
2022-12-19T01:11:47.339Z,58.50
2022-12-19T01:14:33.353Z,58.53
2022-12-19T01:17:19.825Z,58.25
2022-12-19T01:20:06.016Z,58.56
2022-12-19T01:22:51.838Z,59.13
2022-12-19T01:25:39.109Z,58.45
2022-12-19T01:28:30.905Z,58.59
2022-12-19T01:31:16.744Z,59.00
2022-12-19T01:34:04.701Z,58.71
2022-12-19T01:36:51.522Z,58.79
2022-12-19T01:39:37.456Z,58.78
2022-12-19T01:42:25.645Z,59.05
2022-12-19T01:45:13.995Z,59.18
2022-12-19T01:48:05.488Z,58.54
2022-12-19T01:51:03.376Z,58.40
2022-12-19T01:54:00.561Z,58.66
2022-12-19T01:56:55.815Z,58.63
2022-12-19T01:59:57.236Z,59.15
2022-12-19T02:02:54.853Z,58.76
2022-12-19T02:05:41.250Z,58.86
2022-12-19T02:08:28.459Z,58.44
2022-12-19T02:11:16.501Z,59.10
2022-12-19T02:14:02.570Z,58.37
2022-12-19T02:16:54.431Z,58.80
2022-12-19T02:20:03.590Z,59.08
2022-12-19T02:23:16.025Z,58.52
2022-12-19T02:26:23.909Z,58.79
2022-12-19T02:29:39.759Z,58.99
2022-12-19T02:32:38.411Z,59.00
2022-12-19T02:35:41.980Z,58.69
2022-12-19T02:38:30.291Z,58.43
2022-12-19T02:41:26.076Z,58.48
2022-12-19T02:44:42.898Z,58.52
2022-12-19T02:47:29.970Z,58.29
2022-12-19T02:50:16.420Z,59.03
2022-12-19T02:53:02.231Z,59.20
2022-12-19T02:56:03.634Z,58.71
2022-12-19T02:59:22.337Z,58.54
2022-12-19T03:03:01.244Z,59.13
2022-12-19T03:06:12.656Z,58.99
2022-12-19T03:09:16.058Z,59.13
2022-12-19T03:12:17.550Z,58.93
2022-12-19T03:15:04.612Z,58.77
2022-12-19T03:17:51.163Z,58.84
2022-12-19T03:20:48.258Z,58.48
2022-12-19T03:23:34.371Z,58.73
2022-12-19T03:26:23.657Z,59.00
2022-12-19T03:29:20.010Z,58.38
2022-12-19T03:32:11.179Z,58.82
2022-12-19T03:35:07.438Z,58.59
2022-12-19T03:38:10.584Z,58.96
2022-12-19T03:40:57.045Z,58.13
2022-12-19T03:43:44.952Z,58.33
2022-12-19T03:46:31.183Z,58.95
2022-12-19T03:49:17.392Z,58.44
2022-12-19T03:52:06.365Z,58.69
2022-12-19T03:55:01.431Z,58.21
2022-12-19T03:57:52.658Z,58.71
2022-12-19T04:00:40.644Z,58.63
2022-12-19T04:03:28.059Z,59.00
2022-12-19T04:06:14.633Z,58.42
2022-12-19T04:09:01.693Z,58.91
2022-12-19T04:11:52.450Z,58.51
2022-12-19T04:14:39.074Z,58.81
2022-12-19T04:17:53.755Z,59.14
2022-12-19T04:20:41.476Z,59.09
2022-12-19T04:23:47.677Z,58.94
2022-12-19T04:26:35.225Z,58.45
2022-12-19T04:29:22.139Z,58.46
2022-12-19T04:32:09.105Z,58.65
2022-12-19T04:34:54.899Z,58.23
2022-12-19T04:37:40.662Z,58.41
2022-12-19T04:40:26.303Z,58.48
2022-12-19T04:43:12.134Z,58.34
2022-12-19T04:45:58.069Z,58.18
2022-12-19T04:48:43.771Z,58.14
2022-12-19T04:51:29.642Z,58.16
2022-12-19T04:54:16.025Z,58.14
2022-12-19T04:57:02.095Z,58.24
2022-12-19T04:59:47.874Z,58.37
2022-12-19T05:02:33.881Z,58.02
2022-12-19T05:05:20.009Z,57.71
2022-12-19T05:08:05.993Z,57.91
2022-12-19T05:10:51.815Z,58.01
2022-12-19T05:13:37.821Z,58.20
2022-12-19T05:16:23.761Z,58.02
2022-12-19T05:19:09.786Z,58.12
2022-12-19T05:21:55.741Z,58.61
2022-12-19T05:24:41.774Z,58.82
2022-12-19T05:27:27.695Z,58.11
2022-12-19T05:30:13.511Z,58.75
2022-12-19T05:32:59.545Z,58.80
2022-12-19T05:35:45.500Z,58.70
2022-12-19T05:38:31.443Z,58.61
2022-12-19T05:41:19.211Z,58.66
2022-12-19T05:44:05.266Z,58.39
2022-12-19T05:46:50.987Z,58.73
2022-12-19T05:49:36.827Z,58.47
2022-12-19T05:52:23.139Z,58.72
2022-12-19T05:55:09.955Z,58.82
2022-12-19T05:57:55.868Z,58.76
2022-12-19T06:00:41.560Z,58.98
2022-12-19T06:03:28.210Z,58.34
2022-12-19T06:06:17.192Z,58.38
2022-12-19T06:09:03.055Z,58.30
2022-12-19T06:11:48.783Z,58.30
2022-12-19T06:14:34.565Z,58.65
2022-12-19T06:17:20.477Z,58.81
2022-12-19T06:20:07.118Z,58.31
2022-12-19T06:22:53.227Z,58.93
2022-12-19T06:25:38.948Z,58.71
2022-12-19T06:28:25.732Z,58.83
2022-12-19T06:31:12.316Z,58.26
2022-12-19T06:33:58.206Z,58.46
2022-12-19T06:36:44.055Z,58.61
2022-12-19T06:39:30.434Z,58.81
2022-12-19T06:42:25.601Z,58.38
2022-12-19T06:45:11.632Z,58.03
2022-12-19T06:47:57.664Z,58.52
2022-12-19T06:50:45.664Z,58.60
2022-12-19T06:53:31.494Z,58.69
2022-12-19T06:56:18.047Z,58.42
2022-12-19T06:59:05.162Z,58.07
2022-12-19T07:02:00.520Z,58.34
2022-12-19T07:05:02.592Z,58.25
2022-12-19T07:07:48.633Z,58.05
2022-12-19T07:10:34.615Z,58.17
2022-12-19T07:13:20.777Z,57.80
2022-12-19T07:16:07.271Z,57.88
2022-12-19T07:18:53.118Z,57.87
2022-12-19T07:21:39.418Z,58.34
2022-12-19T07:24:25.979Z,58.13
2022-12-19T07:27:11.729Z,58.08
2022-12-19T07:29:57.655Z,57.79
2022-12-19T07:32:43.600Z,57.34
2022-12-19T07:35:29.730Z,57.35
2022-12-19T07:38:15.511Z,57.58
2022-12-19T07:41:02.162Z,57.77
2022-12-19T07:43:47.751Z,58.16
2022-12-19T07:46:33.497Z,57.63
2022-12-19T07:49:22.652Z,57.79
2022-12-19T07:52:08.879Z,58.22
2022-12-19T07:54:54.715Z,57.62
2022-12-19T07:57:40.799Z,57.31
2022-12-19T08:00:26.585Z,57.50
2022-12-19T08:03:12.842Z,57.98
2022-12-19T08:06:06.589Z,57.16
2022-12-19T08:08:52.392Z,57.08
2022-12-19T08:11:38.276Z,57.65
2022-12-19T08:14:25.139Z,57.42
2022-12-19T08:17:20.300Z,57.85
2022-12-19T08:20:07.967Z,57.26
2022-12-19T08:22:54.006Z,57.73
2022-12-19T08:25:39.941Z,57.60
2022-12-19T08:28:26.338Z,58.10
2022-12-19T08:31:15.333Z,57.66
2022-12-19T08:34:01.367Z,58.00
2022-12-19T08:36:47.253Z,58.40
2022-12-19T08:39:33.279Z,58.39
2022-12-19T08:42:19.145Z,57.79
2022-12-19T08:45:05.904Z,57.86
2022-12-19T08:47:51.950Z,57.73
2022-12-19T08:50:37.600Z,57.61
2022-12-19T08:53:26.667Z,57.35
2022-12-19T08:56:16.770Z,58.18
2022-12-19T08:59:02.611Z,58.16
2022-12-19T09:01:48.737Z,57.72
2022-12-19T09:06:01.224Z,57.66
2022-12-19T09:07:41.079Z,57.36
2022-12-19T09:10:27.399Z,57.93
2022-12-19T09:13:13.646Z,57.80
2022-12-19T09:16:05.799Z,57.53
2022-12-19T09:18:54.673Z,57.53
2022-12-19T09:21:40.613Z,57.65
2022-12-19T09:24:26.507Z,57.01
2022-12-19T09:27:12.283Z,57.53
2022-12-19T09:29:59.833Z,57.60
2022-12-19T09:32:45.666Z,57.21
2022-12-19T09:35:31.483Z,57.27
2022-12-19T09:38:17.244Z,57.31
2022-12-19T09:41:31.627Z,57.36
2022-12-19T09:44:32.764Z,56.73
2022-12-19T09:47:21.872Z,56.96
2022-12-19T09:50:26.327Z,57.51
2022-12-19T09:53:31.890Z,56.91
2022-12-19T09:56:18.247Z,57.18
2022-12-19T09:59:49.875Z,56.88
2022-12-19T10:02:56.696Z,56.99
2022-12-19T10:07:15.825Z,57.50
2022-12-19T10:10:16.581Z,57.59
2022-12-19T10:12:51.176Z,57.47
2022-12-19T10:15:59.055Z,57.92
2022-12-19T10:18:57.353Z,57.67
2022-12-19T10:25:25.258Z,56.91
2022-12-19T10:28:26.418Z,57.40
2022-12-19T10:31:22.243Z,57.21
2022-12-19T10:34:21.161Z,57.35
2022-12-19T10:37:49.642Z,56.48
2022-12-19T10:41:44.001Z,57.17
2022-12-19T10:44:30.966Z,56.77
2022-12-19T10:47:17.638Z,57.22
2022-12-19T10:50:09.283Z,56.91
2022-12-19T10:53:15.032Z,57.20
2022-12-19T10:56:12.648Z,57.04
2022-12-19T10:58:59.253Z,57.29
2022-12-19T11:02:00.351Z,57.39
2022-12-19T11:05:20.015Z,56.82
2022-12-19T11:08:08.750Z,56.65
2022-12-19T11:15:44.153Z,56.96
2022-12-19T11:18:47.201Z,57.02
2022-12-19T11:24:30.022Z,57.18
2022-12-19T11:29:32.821Z,56.84
2022-12-19T11:29:54.274Z,56.96
2022-12-19T11:30:25.964Z,56.71
2022-12-19T11:34:16.099Z,56.73
2022-12-19T11:37:17.523Z,56.89
2022-12-19T11:40:25.706Z,56.69
2022-12-19T11:43:47.170Z,56.51
2022-12-19T11:46:34.533Z,56.69
2022-12-19T11:49:31.282Z,56.77
2022-12-19T11:53:13.010Z,56.74
2022-12-19T11:56:03.956Z,57.19
2022-12-19T11:58:55.148Z,57.00
2022-12-19T12:01:59.085Z,56.65
2022-12-19T12:04:45.226Z,57.21
2022-12-19T12:08:44.438Z,57.25
2022-12-19T12:16:13.578Z,56.64
2022-12-19T12:23:50.593Z,56.49
2022-12-19T12:31:04.067Z,56.59
2022-12-19T12:31:26.662Z,56.53
2022-12-19T12:31:29.545Z,56.55
2022-12-19T12:31:58.821Z,56.36
2022-12-19T12:35:35.102Z,56.72
2022-12-19T12:35:46.563Z,56.91
2022-12-19T12:41:15.026Z,57.05
2022-12-19T12:44:09.256Z,56.66
2022-12-19T12:47:05.306Z,57.09
2022-12-19T12:49:59.176Z,57.26
2022-12-19T12:52:51.096Z,57.10
2022-12-19T12:55:41.841Z,56.96
2022-12-19T12:58:50.123Z,57.14
2022-12-19T13:01:40.654Z,57.02
2022-12-19T13:04:35.302Z,56.80
2022-12-19T13:07:42.213Z,56.77
2022-12-19T13:10:32.160Z,56.71
2022-12-19T13:13:24.155Z,56.61
2022-12-19T13:16:45.993Z,56.73
2022-12-19T13:19:37.603Z,56.29
2022-12-19T13:22:29.693Z,56.65
2022-12-19T13:25:38.924Z,56.19
2022-12-19T13:28:25.008Z,56.42
2022-12-19T13:31:20.399Z,56.60
2022-12-19T13:34:17.629Z,57.05
2022-12-19T13:39:52.340Z,57.17
2022-12-19T13:40:51.184Z,56.64
2022-12-19T13:43:49.536Z,56.90
2022-12-19T13:46:40.323Z,56.72
2022-12-19T13:49:34.203Z,56.46
2022-12-19T13:52:23.008Z,55.97
2022-12-19T13:55:14.360Z,55.60
2022-12-19T13:58:04.403Z,55.13
2022-12-19T14:00:53.809Z,54.50
2022-12-19T14:03:43.178Z,54.73
2022-12-19T14:06:31.236Z,54.71
2022-12-19T14:11:28.011Z,54.61
2022-12-19T14:13:39.627Z,54.87
2022-12-19T14:16:05.304Z,54.83
2022-12-19T14:18:51.607Z,54.64
2022-12-19T14:22:09.747Z,54.74
2022-12-19T14:25:33.275Z,54.91
2022-12-19T14:28:18.428Z,54.98
2022-12-19T14:31:12.667Z,55.14
2022-12-19T14:34:27.178Z,55.51
2022-12-19T14:37:54.293Z,54.93
2022-12-19T14:41:07.199Z,55.70
2022-12-19T14:43:59.551Z,55.57
2022-12-19T14:54:21.705Z,56.05
2022-12-19T14:54:23.041Z,55.88
2022-12-19T14:54:24.477Z,55.80
2022-12-19T14:57:00.938Z,55.92
2022-12-19T14:59:48.662Z,56.31
2022-12-19T15:02:35.319Z,56.26
2022-12-19T15:05:22.048Z,56.16
2022-12-19T15:08:11.087Z,56.04
2022-12-19T15:11:44.636Z,56.18
2022-12-19T15:14:52.916Z,56.26
2022-12-19T15:17:47.798Z,56.31
2022-12-19T15:20:33.589Z,56.23
2022-12-19T15:23:22.714Z,56.77
2022-12-19T15:26:16.139Z,56.97
2022-12-19T15:29:03.103Z,57.07
2022-12-19T15:31:49.148Z,56.98
2022-12-19T15:34:40.512Z,56.81
2022-12-19T15:37:32.522Z,56.98
2022-12-19T15:40:18.946Z,56.77
2022-12-19T15:43:05.512Z,56.89
2022-12-19T15:45:56.005Z,56.62
2022-12-19T15:48:46.560Z,57.40
2022-12-19T15:51:32.589Z,57.36
2022-12-19T15:57:37.933Z,56.91
2022-12-19T16:00:26.929Z,56.94
2022-12-19T16:03:23.593Z,57.62
2022-12-19T16:06:15.174Z,57.24
2022-12-19T16:09:01.474Z,57.18
2022-12-19T16:11:48.349Z,57.24
2022-12-19T16:14:34.293Z,57.45
2022-12-19T16:17:22.337Z,57.10
2022-12-19T16:20:21.861Z,56.89
2022-12-19T16:23:08.452Z,57.19
2022-12-19T16:25:54.267Z,57.26
2022-12-19T16:28:40.455Z,56.70
2022-12-19T16:31:28.068Z,57.19
2022-12-19T16:34:19.672Z,57.04
2022-12-19T16:37:05.467Z,57.44
2022-12-19T16:39:51.583Z,57.38
2022-12-19T16:42:37.649Z,57.30
2022-12-19T16:45:25.467Z,57.42
2022-12-19T16:48:19.037Z,57.87
2022-12-19T16:51:05.007Z,57.70
2022-12-19T16:53:52.893Z,57.72
2022-12-19T16:56:54.919Z,58.15
2022-12-19T16:59:41.061Z,57.70
2022-12-19T17:02:45.964Z,57.41
2022-12-19T17:05:32.853Z,58.12
2022-12-19T17:08:19.360Z,58.12
2022-12-19T17:11:08.028Z,57.65
2022-12-19T17:14:02.489Z,57.31
2022-12-19T17:16:49.240Z,57.74
2022-12-19T17:19:39.385Z,57.56
2022-12-19T17:22:25.453Z,57.63
2022-12-19T17:25:24.469Z,57.90
2022-12-19T17:28:11.423Z,57.60
2022-12-19T17:31:00.172Z,57.50
2022-12-19T17:33:46.619Z,57.83
2022-12-19T17:36:37.044Z,57.82
2022-12-19T17:39:26.025Z,57.79
2022-12-19T17:42:22.296Z,58.29
2022-12-19T17:45:09.198Z,57.96
2022-12-19T17:48:02.348Z,57.81
2022-12-19T17:50:48.941Z,58.09
2022-12-19T17:53:35.098Z,58.11
2022-12-19T17:56:22.197Z,58.09
2022-12-19T17:59:07.942Z,58.13
2022-12-19T18:01:54.688Z,57.74
2022-12-19T18:04:40.843Z,58.00
2022-12-19T18:07:26.617Z,57.89
2022-12-19T18:10:38.775Z,58.54
2022-12-19T18:13:26.913Z,58.53
2022-12-19T18:16:15.162Z,58.24
2022-12-19T18:19:01.540Z,57.77
2022-12-19T18:21:48.140Z,57.79
2022-12-19T18:24:34.206Z,58.09
2022-12-19T18:27:20.190Z,57.98
2022-12-19T18:30:06.733Z,57.82
2022-12-19T18:32:58.665Z,58.17
2022-12-19T18:35:50.104Z,58.75
2022-12-19T18:38:36.166Z,58.62
2022-12-19T18:41:22.861Z,58.72
2022-12-19T18:44:09.043Z,58.38
2022-12-19T18:46:55.292Z,58.28
2022-12-19T18:49:41.388Z,58.09
2022-12-19T18:52:28.391Z,58.08
2022-12-19T18:55:19.445Z,58.07
2022-12-19T18:58:05.665Z,57.95
2022-12-19T19:00:57.287Z,58.31
2022-12-19T19:03:53.723Z,58.60
2022-12-19T19:06:46.421Z,58.67
2022-12-19T19:09:36.075Z,58.49
2022-12-19T19:12:42.646Z,58.96
2022-12-19T19:15:31.329Z,58.63
2022-12-19T19:18:23.413Z,58.51
2022-12-19T19:21:11.490Z,59.10
2022-12-19T19:24:06.377Z,58.29
2022-12-19T19:26:52.233Z,58.35
2022-12-19T19:29:38.938Z,58.95
2022-12-19T19:32:25.642Z,58.59
2022-12-19T19:35:11.756Z,58.89
2022-12-19T19:38:00.551Z,58.68
2022-12-19T19:40:46.526Z,59.08
2022-12-19T19:43:35.586Z,59.14
2022-12-19T19:46:21.867Z,59.02
2022-12-19T19:49:08.011Z,59.25
2022-12-19T19:51:58.652Z,59.11
2022-12-19T19:54:48.507Z,59.04
2022-12-19T19:57:35.093Z,59.14
2022-12-19T20:00:21.907Z,59.04
2022-12-19T20:03:10.240Z,58.75
2022-12-19T20:06:01.616Z,59.15
2022-12-19T20:08:47.862Z,59.13
2022-12-19T20:11:33.916Z,59.07
2022-12-19T20:14:19.902Z,59.17
2022-12-19T20:17:05.875Z,59.20
2022-12-19T20:19:51.880Z,58.99
2022-12-19T20:22:37.744Z,58.97
2022-12-19T20:25:23.911Z,58.97
2022-12-19T20:28:10.371Z,59.30
2022-12-19T20:30:56.516Z,59.24
2022-12-19T20:33:42.571Z,59.51
2022-12-19T20:36:28.846Z,59.14
2022-12-19T20:39:15.381Z,58.98
2022-12-19T20:42:01.410Z,59.05
2022-12-19T20:44:47.602Z,58.97
2022-12-19T20:47:33.617Z,59.33
2022-12-19T20:50:19.585Z,59.00
2022-12-19T20:53:05.436Z,59.21
2022-12-19T20:55:58.091Z,59.34
2022-12-19T20:58:47.487Z,59.05
2022-12-19T21:01:33.702Z,59.03
2022-12-19T21:04:19.996Z,59.17
2022-12-19T21:07:06.212Z,59.38
2022-12-19T21:09:54.093Z,59.16
2022-12-19T21:12:47.184Z,58.95
2022-12-19T21:15:34.631Z,59.14
2022-12-19T21:18:23.127Z,58.81
2022-12-19T21:21:15.083Z,58.77
2022-12-19T21:24:05.700Z,59.27
2022-12-19T21:26:57.838Z,58.97
2022-12-19T21:29:45.462Z,59.13
2022-12-19T21:32:33.519Z,59.19
2022-12-19T21:35:20.911Z,59.33
2022-12-19T21:38:06.997Z,59.57
2022-12-19T21:40:52.818Z,59.04
2022-12-19T21:43:38.820Z,59.41
2022-12-19T21:46:28.330Z,59.20
2022-12-19T21:49:14.311Z,58.98
2022-12-19T21:52:00.657Z,59.41
2022-12-19T21:54:46.692Z,58.87
2022-12-19T21:57:32.449Z,59.16
2022-12-19T22:00:18.619Z,58.99
2022-12-19T22:03:19.855Z,59.38
2022-12-19T22:06:19.968Z,59.15
2022-12-19T22:09:14.875Z,59.36
2022-12-19T22:12:01.089Z,59.19
2022-12-19T22:14:47.414Z,59.27
2022-12-19T22:17:33.335Z,59.10
2022-12-19T22:20:19.178Z,58.90
2022-12-19T22:23:11.315Z,58.88
2022-12-19T22:26:05.142Z,58.48
2022-12-19T22:28:53.277Z,59.14
2022-12-19T22:31:39.972Z,59.18
2022-12-19T22:34:25.893Z,59.19
2022-12-19T22:37:11.619Z,59.45
2022-12-19T22:40:00.189Z,59.49
2022-12-19T22:42:46.238Z,59.56
2022-12-19T22:45:31.894Z,59.58
2022-12-19T22:48:17.612Z,59.53
2022-12-19T22:51:04.039Z,59.50
2022-12-19T22:53:50.047Z,59.19
2022-12-19T22:56:36.256Z,59.56
2022-12-19T22:59:22.082Z,59.21
2022-12-19T23:02:08.872Z,59.58
2022-12-19T23:04:54.948Z,59.55
2022-12-19T23:07:40.658Z,59.54
2022-12-19T23:10:26.560Z,59.48
2022-12-19T23:13:12.593Z,59.61
2022-12-19T23:15:58.476Z,59.85
2022-12-19T23:18:44.626Z,59.47
2022-12-19T23:21:30.702Z,59.79
2022-12-19T23:24:16.730Z,59.42
2022-12-19T23:27:02.925Z,59.79
2022-12-19T23:29:49.725Z,59.72
2022-12-19T23:32:35.907Z,59.79
2022-12-19T23:35:21.929Z,59.84
2022-12-19T23:38:07.767Z,59.74
2022-12-19T23:41:02.048Z,59.83
2022-12-19T23:43:48.665Z,59.58
2022-12-19T23:46:34.585Z,59.75
2022-12-19T23:49:20.167Z,59.66
2022-12-19T23:52:06.160Z,59.39
2022-12-19T23:54:52.335Z,59.69
2022-12-19T23:57:38.346Z,59.57
